createdAt,value
2022-09-06T00:00:56.156Z,10.12
2022-09-06T00:03:28.842Z,10.12
2022-09-06T00:06:07.038Z,10.13
2022-09-06T00:08:40.005Z,10.12
2022-09-06T00:11:14.724Z,10.12
2022-09-06T00:13:48.052Z,10.11
2022-09-06T00:16:27.229Z,10.09
2022-09-06T00:19:02.340Z,10.08
2022-09-06T00:21:35.845Z,10.07
2022-09-06T00:24:08.569Z,10.03
2022-09-06T00:26:42.562Z,10.04
2022-09-06T00:29:15.158Z,10.04
2022-09-06T00:31:47.761Z,10.01
2022-09-06T00:34:20.381Z,10.01
2022-09-06T00:36:53.074Z,10.01
2022-09-06T00:39:25.727Z,10.02
2022-09-06T00:41:59.690Z,10.04
2022-09-06T00:44:32.274Z,10.05
2022-09-06T00:47:06.592Z,10.06
2022-09-06T00:49:44.317Z,10.06
2022-09-06T00:52:19.186Z,10.05
2022-09-06T00:54:52.654Z,10.04
2022-09-06T00:57:27.505Z,10.03
2022-09-06T01:00:00.940Z,10.03
2022-09-06T01:02:36.126Z,10.04
2022-09-06T01:05:10.355Z,10.03
2022-09-06T01:08:02.150Z,10.03
2022-09-06T01:11:09.375Z,10.02
2022-09-06T01:13:55.472Z,9.96
2022-09-06T01:16:36.380Z,10.00
2022-09-06T01:19:39.786Z,9.99
2022-09-06T01:22:29.894Z,9.99
2022-09-06T01:25:19.273Z,9.99
2022-09-06T01:28:13.048Z,9.97
2022-09-06T01:30:52.737Z,9.95
2022-09-06T01:33:32.861Z,9.95
2022-09-06T01:36:08.949Z,9.89
2022-09-06T01:38:41.726Z,9.93
2022-09-06T01:41:14.236Z,9.91
2022-09-06T01:43:52.088Z,9.93
2022-09-06T01:46:32.933Z,9.89
2022-09-06T01:49:26.640Z,9.88
2022-09-06T01:52:12.139Z,9.86
2022-09-06T01:54:58.153Z,9.87
2022-09-06T01:57:46.772Z,9.87
2022-09-06T02:00:22.659Z,9.85
2022-09-06T02:03:06.597Z,9.86
2022-09-06T02:05:45.036Z,9.86
2022-09-06T02:08:22.725Z,9.86
2022-09-06T02:10:59.565Z,9.84
2022-09-06T02:13:35.291Z,9.84
2022-09-06T02:16:11.359Z,9.83
2022-09-06T02:18:48.120Z,9.79
2022-09-06T02:21:26.272Z,9.78
2022-09-06T02:24:02.602Z,9.77
2022-09-06T02:26:38.190Z,9.77
2022-09-06T02:29:10.918Z,9.75
2022-09-06T02:31:49.137Z,9.75
2022-09-06T02:34:22.156Z,9.75
2022-09-06T02:36:55.136Z,9.73
2022-09-06T02:39:27.817Z,9.73
2022-09-06T02:42:01.905Z,9.70
2022-09-06T02:44:34.516Z,9.69
2022-09-06T02:47:08.642Z,9.65
2022-09-06T02:49:41.177Z,9.65
2022-09-06T02:52:13.811Z,9.60
2022-09-06T02:54:46.597Z,9.63
2022-09-06T02:57:19.331Z,9.62
2022-09-06T02:59:52.273Z,9.62
2022-09-06T03:02:26.419Z,9.59
2022-09-06T03:04:59.060Z,9.57
2022-09-06T03:07:31.592Z,9.55
2022-09-06T03:10:04.734Z,9.56
2022-09-06T03:12:37.556Z,9.52
2022-09-06T03:15:11.470Z,9.53
2022-09-06T03:17:45.449Z,9.54
2022-09-06T03:20:18.175Z,9.53
2022-09-06T03:22:50.718Z,9.48
2022-09-06T03:25:26.045Z,9.48
2022-09-06T03:27:58.673Z,9.48
2022-09-06T03:30:31.214Z,9.48
2022-09-06T03:33:05.298Z,9.49
2022-09-06T03:35:37.792Z,9.46
2022-09-06T03:38:10.414Z,9.48
2022-09-06T03:40:45.115Z,9.51
2022-09-06T03:43:18.655Z,9.51
2022-09-06T03:45:53.044Z,9.53
2022-09-06T03:48:29.273Z,9.53
2022-09-06T03:51:01.866Z,9.54
2022-09-06T03:53:34.463Z,9.55
2022-09-06T03:56:07.350Z,9.55
2022-09-06T03:58:40.007Z,9.55
2022-09-06T04:01:12.675Z,9.54
2022-09-06T04:03:47.137Z,9.54
2022-09-06T04:06:19.855Z,9.50
2022-09-06T04:08:52.543Z,9.56
2022-09-06T04:11:25.070Z,9.57
2022-09-06T04:13:57.724Z,9.60
2022-09-06T04:16:30.381Z,9.61
2022-09-06T04:19:04.748Z,9.61
2022-09-06T04:21:37.292Z,9.65
2022-09-06T04:24:09.889Z,9.65
2022-09-06T04:26:42.457Z,9.65
2022-09-06T04:29:15.079Z,9.64
2022-09-06T04:31:47.655Z,9.65
2022-09-06T04:34:21.747Z,9.65
2022-09-06T04:36:54.140Z,9.67
2022-09-06T04:39:26.712Z,9.69
2022-09-06T04:41:59.228Z,9.71
2022-09-06T04:44:31.833Z,9.74
2022-09-06T04:47:09.429Z,9.80
2022-09-06T04:49:43.734Z,9.86
2022-09-06T04:52:16.778Z,9.87
2022-09-06T04:54:49.361Z,9.86
2022-09-06T04:57:21.981Z,9.85
2022-09-06T04:59:54.590Z,9.92
2022-09-06T05:02:27.901Z,9.90
2022-09-06T05:05:01.927Z,9.87
2022-09-06T05:07:35.820Z,9.92
2022-09-06T05:10:08.959Z,9.94
2022-09-06T05:12:44.320Z,9.99
2022-09-06T05:15:17.864Z,9.99
2022-09-06T05:17:50.519Z,10.03
2022-09-06T05:20:24.482Z,10.04
2022-09-06T05:22:57.024Z,10.05
2022-09-06T05:25:29.762Z,10.03
2022-09-06T05:28:05.874Z,10.04
2022-09-06T05:30:38.516Z,10.07
2022-09-06T05:33:11.665Z,10.11
2022-09-06T05:35:45.703Z,10.16
2022-09-06T05:38:18.260Z,10.25
2022-09-06T05:40:50.728Z,10.31
2022-09-06T05:43:23.525Z,10.35
2022-09-06T05:45:56.260Z,10.39
2022-09-06T05:48:30.434Z,10.39
2022-09-06T05:51:09.679Z,10.41
2022-09-06T05:53:44.073Z,10.46
2022-09-06T05:56:17.285Z,10.52
2022-09-06T05:58:49.881Z,10.60
2022-09-06T06:01:25.012Z,10.65
2022-09-06T06:04:00.382Z,10.71
2022-09-06T06:06:35.108Z,10.77
2022-09-06T06:09:07.654Z,10.83
2022-09-06T06:11:41.052Z,10.87
2022-09-06T06:14:13.781Z,10.95
2022-09-06T06:16:46.445Z,11.00
2022-09-06T06:19:19.062Z,11.08
2022-09-06T06:21:53.448Z,11.12
2022-09-06T06:24:26.280Z,11.18
2022-09-06T06:26:58.821Z,11.23
2022-09-06T06:29:31.656Z,11.23
2022-09-06T06:32:04.379Z,11.18
2022-09-06T06:34:36.907Z,11.11
2022-09-06T06:37:10.844Z,11.04
2022-09-06T06:39:43.443Z,10.98
2022-09-06T06:42:16.227Z,10.97
2022-09-06T06:44:57.226Z,10.97
2022-09-06T06:47:29.801Z,10.97
2022-09-06T06:50:02.304Z,11.00
2022-09-06T06:52:37.685Z,11.03
2022-09-06T06:55:10.543Z,11.04
2022-09-06T06:57:43.296Z,11.02
2022-09-06T07:00:16.208Z,11.04
2022-09-06T07:02:48.807Z,11.04
2022-09-06T07:08:15.181Z,10.98
2022-09-06T07:10:47.730Z,10.93
2022-09-06T07:13:20.291Z,10.90
2022-09-06T07:15:52.941Z,10.92
2022-09-06T07:18:25.513Z,10.99
2022-09-06T07:24:08.391Z,11.00
2022-09-06T07:26:41.832Z,11.01
2022-09-06T07:29:14.540Z,11.00
2022-09-06T07:34:41.705Z,10.92
2022-09-06T07:37:14.217Z,10.88
2022-09-06T07:39:48.512Z,10.83
2022-09-06T07:42:21.059Z,10.83
2022-09-06T07:44:57.316Z,10.79
2022-09-06T07:53:20.498Z,10.95
2022-09-06T07:56:01.517Z,10.91
2022-09-06T07:58:34.756Z,10.96
2022-09-06T08:01:18.601Z,11.02
2022-09-06T08:03:51.274Z,11.07
2022-09-06T08:06:24.848Z,11.11
2022-09-06T08:08:58.923Z,11.24
2022-09-06T08:11:34.825Z,11.36
2022-09-06T08:14:08.553Z,11.50
2022-09-06T08:16:41.127Z,11.62
2022-09-06T08:19:13.742Z,11.60
2022-09-06T08:21:46.366Z,11.53
2022-09-06T08:24:18.973Z,11.48
2022-09-06T08:26:53.074Z,11.42
2022-09-06T08:29:26.221Z,11.40
2022-09-06T08:31:58.877Z,11.34
2022-09-06T08:34:31.416Z,11.26
2022-09-06T08:37:04.026Z,11.23
2022-09-06T08:39:36.607Z,11.25
2022-09-06T08:42:12.658Z,11.29
2022-09-06T08:47:26.382Z,11.36
2022-09-06T08:50:02.912Z,11.41
2022-09-06T08:53:15.538Z,11.47
2022-09-06T08:55:48.342Z,11.58
2022-09-06T08:58:43.229Z,11.69
2022-09-06T09:01:19.421Z,11.73
2022-09-06T09:03:56.977Z,11.70
2022-09-06T09:06:32.383Z,11.63
2022-09-06T09:09:07.148Z,11.51
2022-09-06T09:11:44.049Z,11.42
2022-09-06T09:14:22.629Z,11.38
2022-09-06T09:16:57.959Z,11.42
2022-09-06T09:19:33.646Z,11.48
2022-09-06T09:22:06.252Z,11.53
2022-09-06T09:24:39.428Z,11.56
2022-09-06T09:27:14.085Z,11.64
2022-09-06T09:32:59.082Z,11.64
2022-09-06T09:35:34.037Z,11.55
2022-09-06T09:38:11.813Z,11.48
2022-09-06T09:40:51.869Z,11.42
2022-09-06T09:43:26.506Z,11.42
2022-09-06T09:46:16.825Z,11.42
2022-09-06T09:49:02.507Z,11.44
2022-09-06T09:51:36.858Z,11.51
2022-09-06T09:54:11.912Z,11.58
2022-09-06T09:56:47.476Z,11.67
2022-09-06T09:59:24.827Z,11.75
2022-09-06T10:02:01.744Z,11.87
2022-09-06T10:07:15.325Z,12.04
2022-09-06T10:09:50.246Z,12.11
2022-09-06T10:12:30.162Z,12.15
2022-09-06T10:15:06.875Z,12.16
2022-09-06T10:17:50.037Z,12.10
2022-09-06T10:20:29.731Z,12.06
2022-09-06T10:23:09.210Z,12.00
2022-09-06T10:25:48.911Z,12.07
2022-09-06T10:28:30.327Z,12.15
2022-09-06T10:31:22.960Z,12.28
2022-09-06T10:34:10.743Z,12.39
2022-09-06T10:36:52.675Z,12.49
2022-09-06T10:39:35.727Z,12.55
2022-09-06T10:42:19.999Z,12.62
2022-09-06T10:45:15.456Z,12.57
2022-09-06T10:47:57.111Z,12.46
2022-09-06T10:50:38.685Z,12.32
2022-09-06T10:53:24.689Z,12.21
2022-09-06T10:56:04.675Z,12.14
2022-09-06T11:01:42.167Z,12.15
2022-09-06T11:04:23.774Z,12.10
2022-09-06T11:07:01.225Z,12.12
2022-09-06T11:09:41.536Z,12.15
2022-09-06T11:12:17.940Z,12.19
2022-09-06T11:14:51.359Z,12.27
2022-09-06T11:17:31.499Z,12.34
2022-09-06T11:20:08.561Z,12.34
2022-09-06T11:23:25.248Z,12.44
2022-09-06T11:26:23.979Z,12.46
2022-09-06T11:28:59.134Z,12.38
2022-09-06T11:34:28.863Z,12.25
2022-09-06T11:37:02.828Z,12.17
2022-09-06T11:43:03.328Z,12.21
2022-09-06T11:45:45.964Z,12.17
2022-09-06T11:48:50.610Z,12.12
2022-09-06T11:51:36.172Z,12.06
2022-09-06T11:54:30.096Z,12.12
2022-09-06T11:57:14.833Z,12.13
2022-09-06T12:00:00.733Z,12.20
2022-09-06T12:02:39.289Z,12.25
2022-09-06T12:05:22.418Z,12.27
2022-09-06T12:08:32.193Z,12.32
2022-09-06T12:11:21.897Z,12.30
2022-09-06T12:13:59.556Z,12.26
2022-09-06T12:17:19.253Z,12.30
2022-09-06T12:19:54.381Z,12.34
2022-09-06T12:22:52.865Z,12.39
2022-09-06T12:25:56.985Z,12.51
2022-09-06T12:28:42.562Z,12.65
2022-09-06T12:31:40.445Z,12.77
2022-09-06T12:34:19.485Z,12.86
2022-09-06T12:36:56.485Z,12.93
2022-09-06T12:39:29.170Z,12.97
2022-09-06T12:42:03.814Z,12.96
2022-09-06T12:44:41.690Z,12.97
2022-09-06T12:47:20.814Z,12.97
2022-09-06T12:50:09.548Z,12.94
2022-09-06T12:52:47.835Z,12.87
2022-09-06T12:55:23.788Z,12.78
2022-09-06T12:57:57.965Z,12.72
2022-09-06T13:00:34.539Z,12.71
2022-09-06T13:03:21.239Z,12.68
2022-09-06T13:05:55.640Z,12.74
2022-09-06T13:08:34.716Z,12.79
2022-09-06T13:11:11.465Z,12.81
2022-09-06T13:13:49.295Z,12.80
2022-09-06T13:16:24.067Z,12.80
2022-09-06T13:19:12.658Z,12.77
2022-09-06T13:21:47.257Z,12.75
2022-09-06T13:24:23.151Z,12.73
2022-09-06T13:26:56.018Z,12.75
2022-09-06T13:29:31.399Z,12.78
2022-09-06T13:32:05.836Z,12.82
2022-09-06T13:34:51.491Z,12.87
2022-09-06T13:37:26.031Z,12.89
2022-09-06T13:39:59.982Z,12.92
2022-09-06T13:42:34.231Z,12.94
2022-09-06T13:45:21.715Z,12.96
2022-09-06T13:48:03.492Z,12.96
2022-09-06T13:50:48.613Z,12.97
2022-09-06T13:53:21.191Z,12.97
2022-09-06T13:55:54.205Z,12.98
2022-09-06T13:58:27.796Z,12.98
2022-09-06T14:01:00.848Z,12.96
2022-09-06T14:03:33.541Z,12.98
2022-09-06T14:06:09.529Z,12.98
2022-09-06T14:09:05.927Z,12.96
2022-09-06T14:11:36.063Z,12.92
2022-09-06T14:14:10.076Z,12.88
2022-09-06T14:16:42.918Z,12.79
2022-09-06T14:19:15.953Z,12.75
2022-09-06T14:21:49.932Z,12.71
2022-09-06T14:24:22.657Z,12.69
2022-09-06T14:26:55.449Z,12.67
2022-09-06T14:29:28.680Z,12.68
2022-09-06T14:32:01.453Z,12.64
2022-09-06T14:34:33.971Z,12.66
2022-09-06T14:37:12.865Z,12.64
2022-09-06T14:39:46.240Z,12.62
2022-09-06T14:42:18.977Z,12.62
2022-09-06T14:44:51.635Z,12.63
2022-09-06T14:47:24.404Z,12.63
2022-09-06T14:49:57.360Z,12.64
2022-09-06T14:52:31.267Z,12.62
2022-09-06T14:55:04.450Z,12.59
2022-09-06T14:57:37.448Z,12.57
2022-09-06T15:00:12.039Z,12.56
2022-09-06T15:02:44.730Z,12.53
2022-09-06T15:05:17.728Z,12.49
2022-09-06T15:07:51.766Z,12.48
2022-09-06T15:10:26.304Z,12.43
2022-09-06T15:12:58.881Z,12.41
2022-09-06T15:15:31.676Z,12.37
2022-09-06T15:18:04.886Z,12.36
2022-09-06T15:20:37.602Z,12.33
2022-09-06T15:23:26.845Z,12.33
2022-09-06T15:25:59.460Z,12.28
2022-09-06T15:28:34.687Z,12.31
2022-09-06T15:31:08.621Z,12.27
2022-09-06T15:33:41.653Z,12.24
2022-09-06T15:36:15.306Z,12.24
2022-09-06T15:38:50.639Z,12.20
2022-09-06T15:41:25.837Z,12.19
2022-09-06T15:44:00.631Z,12.14
2022-09-06T15:46:46.155Z,12.13
2022-09-06T15:49:24.383Z,12.09
2022-09-06T15:52:01.725Z,12.06
2022-09-06T15:54:53.996Z,12.02
2022-09-06T15:57:26.786Z,11.96
2022-09-06T15:59:59.470Z,11.94
2022-09-06T16:02:32.168Z,11.90
2022-09-06T16:05:05.849Z,11.84
2022-09-06T16:07:41.200Z,11.83
2022-09-06T16:10:15.479Z,11.79
2022-09-06T16:12:50.577Z,11.79
2022-09-06T16:15:23.313Z,11.78
2022-09-06T16:17:57.917Z,11.72
2022-09-06T16:20:33.489Z,11.74
2022-09-06T16:23:06.204Z,11.71
2022-09-06T16:25:40.149Z,11.70
2022-09-06T16:28:12.788Z,11.65
2022-09-06T16:30:45.513Z,11.58
2022-09-06T16:33:18.223Z,11.58
2022-09-06T16:35:50.782Z,11.55
2022-09-06T16:38:23.676Z,11.51
2022-09-06T16:40:58.838Z,11.45
2022-09-06T16:43:34.016Z,11.43
2022-09-06T16:46:07.540Z,11.37
2022-09-06T16:48:43.183Z,11.35
2022-09-06T16:51:17.941Z,11.29
2022-09-06T16:53:52.240Z,11.24
2022-09-06T16:56:27.795Z,11.16
2022-09-06T16:59:03.123Z,11.14
2022-09-06T17:01:37.339Z,11.12
2022-09-06T17:04:10.583Z,11.12
2022-09-06T17:06:47.055Z,11.12
2022-09-06T17:09:20.306Z,11.13
2022-09-06T17:11:54.633Z,11.09
2022-09-06T17:14:27.891Z,11.13
2022-09-06T17:17:07.587Z,11.12
2022-09-06T17:19:41.783Z,11.12
2022-09-06T17:22:15.158Z,11.10
2022-09-06T17:24:47.995Z,11.07
2022-09-06T17:27:22.135Z,11.04
2022-09-06T17:29:54.966Z,11.00
2022-09-06T17:32:27.965Z,10.94
2022-09-06T17:35:00.812Z,10.92
2022-09-06T17:37:33.805Z,10.88
2022-09-06T17:40:07.929Z,10.84
2022-09-06T17:42:42.356Z,10.79
2022-09-06T17:45:15.334Z,10.73
2022-09-06T17:47:48.587Z,10.65
2022-09-06T17:50:21.525Z,10.64
2022-09-06T17:52:55.307Z,10.58
2022-09-06T17:55:29.728Z,10.52
2022-09-06T17:58:04.083Z,10.47
2022-09-06T18:00:39.473Z,10.43
2022-09-06T18:03:12.640Z,10.33
2022-09-06T18:05:45.551Z,10.30
2022-09-06T18:08:18.343Z,10.32
2022-09-06T18:10:51.233Z,10.27
2022-09-06T18:13:25.527Z,10.25
2022-09-06T18:15:58.801Z,10.19
2022-09-06T18:18:32.330Z,10.10
2022-09-06T18:21:07.321Z,10.15
2022-09-06T18:23:40.542Z,10.08
2022-09-06T18:26:14.244Z,10.08
2022-09-06T18:28:49.244Z,10.04
2022-09-06T18:31:23.902Z,10.00
2022-09-06T18:33:59.004Z,9.95
2022-09-06T18:36:32.681Z,9.93
2022-09-06T18:39:06.237Z,9.89
2022-09-06T18:41:57.903Z,9.85
2022-09-06T18:44:33.763Z,9.81
2022-09-06T18:47:08.535Z,9.80
2022-09-06T18:49:44.333Z,9.76
2022-09-06T18:52:19.970Z,9.78
2022-09-06T18:54:52.850Z,9.78
2022-09-06T18:57:25.844Z,9.70
2022-09-06T19:00:00.087Z,9.77
2022-09-06T19:02:33.090Z,9.79
2022-09-06T19:05:06.739Z,9.80
2022-09-06T19:07:39.781Z,9.80
2022-09-06T19:10:12.618Z,9.79
2022-09-06T19:12:46.885Z,9.80
2022-09-06T19:15:24.200Z,9.79
2022-09-06T19:17:57.346Z,9.78
2022-09-06T19:20:30.571Z,9.77
2022-09-06T19:23:03.338Z,9.77
2022-09-06T19:25:36.463Z,9.75
2022-09-06T19:28:09.300Z,9.78
2022-09-06T19:30:43.620Z,9.78
2022-09-06T19:33:16.575Z,9.79
2022-09-06T19:36:10.296Z,9.77
2022-09-06T19:41:41.890Z,9.76
2022-09-06T19:44:16.526Z,9.73
2022-09-06T19:46:51.237Z,9.70
2022-09-06T19:49:24.011Z,9.69
2022-09-06T19:51:56.599Z,9.67
2022-09-06T19:54:29.148Z,9.60
2022-09-06T19:57:01.830Z,9.62
2022-09-06T19:59:36.325Z,9.59
2022-09-06T20:02:10.673Z,9.55
2022-09-06T20:04:43.466Z,9.51
2022-09-06T20:07:16.139Z,9.47
2022-09-06T20:09:52.430Z,9.45
2022-09-06T20:12:25.373Z,9.39
2022-09-06T20:14:58.389Z,9.39
2022-09-06T20:17:34.122Z,9.36
2022-09-06T20:20:08.136Z,9.34
2022-09-06T20:22:45.152Z,9.35
2022-09-06T20:25:19.019Z,9.34
2022-09-06T20:27:51.864Z,9.32
2022-09-06T20:30:24.524Z,9.36
2022-09-06T20:33:01.601Z,9.38
2022-09-06T20:35:34.340Z,9.39
2022-09-06T20:38:07.730Z,9.41
2022-09-06T20:40:40.381Z,9.44
2022-09-06T20:43:12.947Z,9.45
2022-09-06T20:45:47.057Z,9.46
2022-09-06T20:48:21.518Z,9.47
2022-09-06T20:50:58.577Z,9.49
2022-09-06T20:53:34.279Z,9.49
2022-09-06T20:56:09.677Z,9.48
2022-09-06T20:58:47.112Z,9.47
2022-09-06T21:01:23.047Z,9.49
2022-09-06T21:03:59.486Z,9.48
2022-09-06T21:06:34.766Z,9.51
2022-09-06T21:09:10.823Z,9.48
2022-09-06T21:11:44.357Z,9.48
2022-09-06T21:14:16.867Z,9.49
2022-09-06T21:16:49.590Z,9.48
2022-09-06T21:19:24.933Z,9.51
2022-09-06T21:21:57.621Z,9.51
2022-09-06T21:24:30.252Z,9.51
2022-09-06T21:27:02.814Z,9.47
2022-09-06T21:29:35.537Z,9.52
2022-09-06T21:32:08.134Z,9.52
2022-09-06T21:34:42.069Z,9.52
2022-09-06T21:37:14.725Z,9.52
2022-09-06T21:39:47.951Z,9.53
2022-09-06T21:42:20.536Z,9.53
2022-09-06T21:44:53.587Z,9.53
2022-09-06T21:47:26.144Z,9.52
2022-09-06T21:50:00.433Z,9.53
2022-09-06T21:52:33.115Z,9.53
2022-09-06T21:55:07.183Z,9.53
2022-09-06T21:57:39.725Z,9.52
2022-09-06T22:00:15.507Z,9.51
2022-09-06T22:02:48.483Z,9.51
2022-09-06T22:05:22.413Z,9.52
2022-09-06T22:07:55.120Z,9.50
2022-09-06T22:10:28.150Z,9.50
2022-09-06T22:13:00.810Z,9.42
2022-09-06T22:15:36.912Z,9.54
2022-09-06T22:18:09.915Z,9.56
2022-09-06T22:20:44.101Z,9.54
2022-09-06T22:23:16.777Z,9.54
2022-09-06T22:25:49.267Z,9.54
2022-09-06T22:28:21.801Z,9.53
2022-09-06T22:30:54.694Z,9.50
2022-09-06T22:33:27.545Z,9.53
2022-09-06T22:36:01.916Z,9.52
2022-09-06T22:38:35.153Z,9.50
2022-09-06T22:41:08.221Z,9.50
2022-09-06T22:43:40.981Z,9.49
2022-09-06T22:46:13.591Z,9.48
2022-09-06T22:48:46.286Z,9.47
2022-09-06T22:51:20.506Z,9.45
2022-09-06T22:53:53.315Z,9.44
2022-09-06T22:56:25.866Z,9.42
2022-09-06T22:59:00.497Z,9.42
2022-09-06T23:01:39.390Z,9.42
2022-09-06T23:04:12.156Z,9.38
2022-09-06T23:06:46.425Z,9.39
2022-09-06T23:09:19.677Z,9.36
2022-09-06T23:11:52.798Z,9.34
2022-09-06T23:14:27.707Z,9.35
2022-09-06T23:17:00.231Z,9.33
2022-09-06T23:19:32.781Z,9.32
2022-09-06T23:22:06.988Z,9.30
2022-09-06T23:24:40.117Z,9.29
2022-09-06T23:27:12.596Z,9.31
2022-09-06T23:29:46.231Z,9.29
2022-09-06T23:32:18.870Z,9.28
2022-09-06T23:34:51.608Z,9.31
2022-09-06T23:37:25.478Z,9.32
2022-09-06T23:39:58.176Z,9.32
2022-09-06T23:42:30.835Z,9.33
2022-09-06T23:45:03.730Z,9.33
2022-09-06T23:47:36.567Z,9.34
2022-09-06T23:50:09.763Z,9.34
2022-09-06T23:52:43.876Z,9.32
2022-09-06T23:55:16.806Z,9.32
2022-09-06T23:57:49.372Z,9.31
